createdAt,value
2022-11-04T00:00:16.108Z,94754.31
2022-11-04T00:02:43.071Z,94760.81
2022-11-04T00:05:10.201Z,94752.03
2022-11-04T00:07:55.605Z,94756.63
2022-11-04T00:10:42.636Z,94759.06
2022-11-04T00:13:10.107Z,94758.75
2022-11-04T00:16:09.927Z,94750.03
2022-11-04T00:18:37.149Z,94751.25
2022-11-04T00:21:22.632Z,94754.25
2022-11-04T00:24:08.485Z,94746.84
2022-11-04T00:26:53.985Z,94753.84
2022-11-04T00:29:20.940Z,94739.88
2022-11-04T00:32:06.070Z,94736.25
2022-11-04T00:34:33.081Z,94741.03
2022-11-04T00:37:00.794Z,94743.06
2022-11-04T00:39:27.820Z,94735.84
2022-11-04T00:41:55.017Z,94738.88
2022-11-04T00:44:22.060Z,94732.47
2022-11-04T00:46:49.074Z,94730.50
2022-11-04T00:49:16.260Z,94732.50
2022-11-04T00:51:43.209Z,94726.75
2022-11-04T00:54:10.344Z,94719.78
2022-11-04T00:56:40.885Z,94721.38
2022-11-04T00:59:10.393Z,94718.97
2022-11-04T01:01:41.171Z,94723.28
2022-11-04T01:04:09.367Z,94725.66
2022-11-04T01:06:36.660Z,94721.56
2022-11-04T01:09:09.267Z,94724.44
2022-11-04T01:11:36.460Z,94715.53
2022-11-04T01:14:04.521Z,94716.16
2022-11-04T01:16:32.098Z,94707.09
2022-11-04T01:18:59.296Z,94702.00
2022-11-04T01:21:27.742Z,94698.66
2022-11-04T01:23:54.856Z,94695.25
2022-11-04T01:26:24.859Z,94695.06
2022-11-04T01:28:53.111Z,94693.66
2022-11-04T01:31:23.821Z,94696.09
2022-11-04T01:33:52.430Z,94699.47
2022-11-04T01:36:20.493Z,94695.31
2022-11-04T01:38:47.900Z,94700.72
2022-11-04T01:41:21.096Z,94696.91
2022-11-04T01:43:54.177Z,94695.44
2022-11-04T01:46:49.662Z,94688.94
2022-11-04T01:49:35.815Z,94699.72
2022-11-04T01:52:13.324Z,94689.03
2022-11-04T01:54:43.306Z,94693.16
2022-11-04T01:57:15.185Z,94692.66
2022-11-04T01:59:42.858Z,94686.59
2022-11-04T02:02:10.538Z,94688.00
2022-11-04T02:04:40.248Z,94680.72
2022-11-04T02:07:10.292Z,94678.63
2022-11-04T02:09:40.154Z,94677.03
2022-11-04T02:12:26.046Z,94678.63
2022-11-04T02:14:54.182Z,94675.16
2022-11-04T02:18:06.570Z,94677.63
2022-11-04T02:21:13.101Z,94674.94
2022-11-04T02:24:37.068Z,94664.28
2022-11-04T02:27:50.854Z,94655.72
2022-11-04T02:30:19.956Z,94662.06
2022-11-04T02:33:12.149Z,94670.88
2022-11-04T02:36:24.194Z,94662.41
2022-11-04T02:39:08.351Z,94667.91
2022-11-04T02:41:42.403Z,94655.28
2022-11-04T02:44:44.089Z,94664.72
2022-11-04T02:47:17.883Z,94665.50
2022-11-04T02:49:53.020Z,94657.56
2022-11-04T02:52:27.412Z,94665.75
2022-11-04T02:55:06.633Z,94664.16
2022-11-04T02:57:37.084Z,94664.75
2022-11-04T03:00:09.547Z,94664.16
2022-11-04T03:02:41.985Z,94666.34
2022-11-04T03:05:14.246Z,94662.38
2022-11-04T03:07:44.407Z,94660.16
2022-11-04T03:10:19.303Z,94661.56
2022-11-04T03:13:02.636Z,94659.97
2022-11-04T03:15:34.735Z,94656.97
2022-11-04T03:18:38.785Z,94655.59
2022-11-04T03:21:10.106Z,94661.94
2022-11-04T03:23:38.104Z,94660.34
2022-11-04T03:26:15.491Z,94659.88
2022-11-04T03:29:20.827Z,94658.38
2022-11-04T03:31:59.073Z,94664.94
2022-11-04T03:34:26.494Z,94661.75
2022-11-04T03:36:53.504Z,94663.94
2022-11-04T03:39:20.815Z,94665.66
2022-11-04T03:41:52.807Z,94664.34
2022-11-04T03:44:20.414Z,94665.94
2022-11-04T03:46:47.543Z,94659.28
2022-11-04T03:49:15.478Z,94654.41
2022-11-04T03:51:42.462Z,94655.69
2022-11-04T03:54:09.775Z,94652.19
2022-11-04T03:57:08.513Z,94648.03
2022-11-04T04:00:19.215Z,94653.41
2022-11-04T04:03:02.252Z,94643.88
2022-11-04T04:05:53.097Z,94650.56
2022-11-04T04:08:52.356Z,94649.06
2022-11-04T04:11:36.985Z,94648.34
2022-11-04T04:14:41.680Z,94652.38
2022-11-04T04:17:25.589Z,94651.34
2022-11-04T04:20:19.756Z,94649.44
2022-11-04T04:22:54.547Z,94652.66
2022-11-04T04:25:44.539Z,94652.56
2022-11-04T04:28:16.016Z,94647.78
2022-11-04T04:30:44.613Z,94648.06
2022-11-04T04:33:17.910Z,94641.38
2022-11-04T04:35:49.685Z,94642.97
2022-11-04T04:38:42.214Z,94647.56
2022-11-04T04:41:41.178Z,94641.47
2022-11-04T04:44:41.583Z,94638.78
2022-11-04T04:47:10.193Z,94645.75
2022-11-04T04:49:37.276Z,94651.13
2022-11-04T04:52:07.578Z,94654.13
2022-11-04T04:54:34.639Z,94651.13
2022-11-04T04:57:01.814Z,94658.91
2022-11-04T04:59:28.860Z,94652.72
2022-11-04T05:01:56.139Z,94667.28
2022-11-04T05:04:23.246Z,94656.50
2022-11-04T05:06:50.245Z,94650.53
2022-11-04T05:09:17.279Z,94656.16
2022-11-04T05:11:44.485Z,94652.06
2022-11-04T05:14:11.520Z,94651.56
2022-11-04T05:16:40.936Z,94647.78
2022-11-04T05:19:08.185Z,94655.75
2022-11-04T05:21:35.376Z,94656.53
2022-11-04T05:24:02.449Z,94657.94
2022-11-04T05:26:29.567Z,94661.72
2022-11-04T05:28:56.565Z,94662.31
2022-11-04T05:31:23.666Z,94672.47
2022-11-04T05:33:50.670Z,94683.22
2022-11-04T05:36:18.294Z,94669.28
2022-11-04T05:38:50.977Z,94678.06
2022-11-04T05:41:26.112Z,94679.66
2022-11-04T05:43:57.932Z,94684.13
2022-11-04T05:46:25.624Z,94676.78
2022-11-04T05:48:52.757Z,94679.69
2022-11-04T05:51:22.905Z,94691.44
2022-11-04T05:53:50.398Z,94680.88
2022-11-04T05:56:19.771Z,94687.06
2022-11-04T05:58:48.820Z,94694.22
2022-11-04T06:01:49.399Z,94681.56
2022-11-04T06:04:18.945Z,94689.03
2022-11-04T06:06:46.233Z,94693.44
2022-11-04T06:09:13.585Z,94689.88
2022-11-04T06:11:41.065Z,94696.63
2022-11-04T06:14:18.839Z,94693.34
2022-11-04T06:16:46.078Z,94687.88
2022-11-04T06:19:15.906Z,94689.34
2022-11-04T06:21:43.392Z,94685.69
2022-11-04T06:24:10.431Z,94687.66
2022-11-04T06:26:39.904Z,94692.00
2022-11-04T06:29:06.903Z,94698.28
2022-11-04T06:31:34.091Z,94699.56
2022-11-04T06:34:01.196Z,94702.81
2022-11-04T06:36:28.458Z,94705.31
2022-11-04T06:38:59.949Z,94703.66
2022-11-04T06:41:30.738Z,94692.03
2022-11-04T06:43:57.714Z,94702.59
2022-11-04T06:46:37.288Z,94704.84
2022-11-04T06:49:06.344Z,94703.91
2022-11-04T06:51:34.095Z,94704.31
2022-11-04T06:54:01.274Z,94704.84
2022-11-04T06:56:31.279Z,94704.91
2022-11-04T06:58:58.408Z,94694.47
2022-11-04T07:01:28.332Z,94692.44
2022-11-04T07:03:57.744Z,94686.75
2022-11-04T07:06:26.097Z,94692.31
2022-11-04T07:08:54.167Z,94692.50
2022-11-04T07:11:23.082Z,94681.44
2022-11-04T07:13:50.498Z,94683.56
2022-11-04T07:16:18.664Z,94685.63
2022-11-04T07:18:46.033Z,94676.50
2022-11-04T07:21:13.340Z,94678.44
2022-11-04T07:23:40.704Z,94672.41
2022-11-04T07:26:10.755Z,94670.34
2022-11-04T07:28:38.228Z,94670.50
2022-11-04T07:31:08.108Z,94672.28
2022-11-04T07:33:35.165Z,94673.06
2022-11-04T07:36:07.783Z,94665.94
2022-11-04T07:38:35.315Z,94670.06
2022-11-04T07:41:03.105Z,94665.47
2022-11-04T07:43:30.865Z,94658.81
2022-11-04T07:46:03.934Z,94653.06
2022-11-04T07:48:31.293Z,94647.84
2022-11-04T07:51:00.093Z,94663.25
2022-11-04T07:53:28.895Z,94652.44
2022-11-04T07:55:56.093Z,94652.59
2022-11-04T07:58:23.694Z,94643.84
2022-11-04T08:00:51.139Z,94657.81
2022-11-04T08:03:18.292Z,94646.34
2022-11-04T08:05:45.337Z,94647.63
2022-11-04T08:08:12.500Z,94642.78
2022-11-04T08:10:40.152Z,94640.88
2022-11-04T08:13:07.564Z,94631.75
2022-11-04T08:15:40.792Z,94630.00
2022-11-04T08:18:10.054Z,94624.34
2022-11-04T08:20:39.198Z,94618.31
2022-11-04T08:23:18.048Z,94618.78
2022-11-04T08:25:52.727Z,94608.88
2022-11-04T08:28:36.123Z,94603.34
2022-11-04T08:31:11.433Z,94609.69
2022-11-04T08:33:43.867Z,94593.81
2022-11-04T08:36:25.537Z,94595.00
2022-11-04T08:39:22.167Z,94593.03
2022-11-04T08:41:53.967Z,94597.91
2022-11-04T08:44:29.455Z,94596.28
2022-11-04T08:47:04.308Z,94602.22
2022-11-04T08:50:01.189Z,94599.47
2022-11-04T08:52:31.919Z,94590.06
2022-11-04T08:55:04.321Z,94592.97
2022-11-04T08:57:37.030Z,94583.75
2022-11-04T09:00:14.005Z,94577.44
2022-11-04T09:02:45.460Z,94573.69
2022-11-04T09:05:15.994Z,94570.91
2022-11-04T09:07:54.709Z,94580.75
2022-11-04T09:10:38.546Z,94571.91
2022-11-04T09:13:08.512Z,94566.34
2022-11-04T09:15:39.973Z,94564.66
2022-11-04T09:18:11.222Z,94555.03
2022-11-04T09:20:40.403Z,94553.63
2022-11-04T09:23:14.390Z,94560.00
2022-11-04T09:25:48.016Z,94552.84
2022-11-04T09:28:25.816Z,94549.81
2022-11-04T09:31:15.881Z,94553.25
2022-11-04T09:33:53.477Z,94539.47
2022-11-04T09:36:30.501Z,94535.56
2022-11-04T09:39:01.165Z,94538.72
2022-11-04T09:42:19.794Z,94520.78
2022-11-04T09:45:21.055Z,94525.03
2022-11-04T09:47:59.299Z,94512.31
2022-11-04T09:50:53.704Z,94503.41
2022-11-04T09:53:40.319Z,94496.97
2022-11-04T09:56:20.864Z,94484.56
2022-11-04T09:58:57.687Z,94493.22
2022-11-04T10:01:34.440Z,94488.13
2022-11-04T10:04:49.822Z,94479.38
2022-11-04T10:07:40.508Z,94478.66
2022-11-04T10:10:38.880Z,94472.56
2022-11-04T10:14:11.070Z,94473.06
2022-11-04T10:17:06.362Z,94462.25
2022-11-04T10:19:54.000Z,94465.16
2022-11-04T10:22:39.882Z,94455.19
2022-11-04T10:25:15.136Z,94450.66
2022-11-04T10:27:49.096Z,94443.16
2022-11-04T10:30:24.739Z,94431.91
2022-11-04T10:33:24.904Z,94426.13
2022-11-04T10:36:00.265Z,94423.91
2022-11-04T10:38:34.535Z,94415.72
2022-11-04T10:41:07.048Z,94410.66
2022-11-04T10:43:38.921Z,94403.84
2022-11-04T10:46:35.638Z,94392.31
2022-11-04T10:50:00.244Z,94386.38
2022-11-04T10:52:36.815Z,94384.78
2022-11-04T10:55:16.450Z,94378.97
2022-11-04T10:57:44.447Z,94370.44
2022-11-04T11:00:39.343Z,94369.78
2022-11-04T11:03:33.093Z,94356.72
2022-11-04T11:06:34.861Z,94350.59
2022-11-04T11:09:21.586Z,94351.84
2022-11-04T11:11:50.877Z,94344.00
2022-11-04T11:14:40.180Z,94333.66
2022-11-04T11:17:38.900Z,94326.38
2022-11-04T11:20:38.282Z,94328.41
2022-11-04T11:23:10.114Z,94317.84
2022-11-04T11:25:45.829Z,94317.16
2022-11-04T11:28:23.652Z,94309.72
2022-11-04T11:31:00.561Z,94302.63
2022-11-04T11:33:35.973Z,94287.34
2022-11-04T11:36:34.386Z,94287.75
2022-11-04T11:39:17.841Z,94290.16
2022-11-04T11:42:11.720Z,94279.91
2022-11-04T11:45:03.601Z,94279.03
2022-11-04T11:47:42.914Z,94273.56
2022-11-04T11:50:21.418Z,94278.72
2022-11-04T11:52:49.968Z,94272.78
2022-11-04T11:55:27.938Z,94270.81
2022-11-04T12:01:36.187Z,94262.66
2022-11-04T12:10:49.746Z,94244.09
2022-11-04T12:13:31.640Z,94246.03
2022-11-04T12:16:17.506Z,94242.47
2022-11-04T12:19:32.324Z,94252.25
2022-11-04T12:22:22.280Z,94244.41
2022-11-04T12:25:05.495Z,94237.75
2022-11-04T12:27:59.904Z,94254.50
2022-11-04T12:30:35.406Z,94243.44
2022-11-04T12:33:18.854Z,94244.19
2022-11-04T12:36:20.925Z,94240.31
2022-11-04T12:39:16.890Z,94231.03
2022-11-04T12:42:20.635Z,94232.97
2022-11-04T12:45:53.745Z,94223.84
2022-11-04T12:48:59.816Z,94223.06
2022-11-04T12:52:18.049Z,94224.28
2022-11-04T12:55:18.101Z,94219.16
2022-11-04T12:58:31.764Z,94226.88
2022-11-04T13:01:10.958Z,94215.50
2022-11-04T13:04:09.548Z,94212.72
2022-11-04T13:07:10.625Z,94216.91
2022-11-04T13:09:51.842Z,94219.16
2022-11-04T13:12:23.122Z,94226.19
2022-11-04T13:15:05.015Z,94225.03
2022-11-04T13:18:05.074Z,94215.13
2022-11-04T13:20:51.936Z,94222.66
2022-11-04T13:23:27.564Z,94229.31
2022-11-04T13:25:56.069Z,94225.44
2022-11-04T13:28:24.496Z,94220.47
2022-11-04T13:31:31.719Z,94218.28
2022-11-04T13:34:31.334Z,94216.84
2022-11-04T13:37:31.160Z,94213.75
2022-11-04T13:40:03.312Z,94208.16
2022-11-04T13:43:38.977Z,94217.47
2022-11-04T13:46:31.154Z,94216.69
2022-11-04T13:49:20.659Z,94208.44
2022-11-04T13:52:02.276Z,94205.66
2022-11-04T13:54:58.178Z,94197.03
2022-11-04T13:57:28.673Z,94208.78
2022-11-04T14:00:29.304Z,94210.75
2022-11-04T14:03:01.038Z,94205.44
2022-11-04T14:06:01.399Z,94201.78
2022-11-04T14:08:29.354Z,94201.09
2022-11-04T14:11:07.256Z,94202.06
2022-11-04T14:13:46.019Z,94197.28
2022-11-04T14:16:39.667Z,94196.84
2022-11-04T14:19:44.746Z,94200.16
2022-11-04T14:22:17.414Z,94200.41
2022-11-04T14:24:54.493Z,94202.47
2022-11-04T14:27:41.822Z,94205.28
2022-11-04T14:30:33.478Z,94199.41
2022-11-04T14:33:04.814Z,94195.03
2022-11-04T14:35:33.672Z,94196.25
2022-11-04T14:38:07.913Z,94192.06
2022-11-04T14:40:51.117Z,94198.38
2022-11-04T14:43:36.341Z,94201.06
2022-11-04T14:46:03.954Z,94185.69
2022-11-04T14:48:32.412Z,94182.47
2022-11-04T14:50:59.697Z,94183.88
2022-11-04T14:53:33.470Z,94174.34
2022-11-04T14:56:24.569Z,94170.69
2022-11-04T14:59:07.177Z,94166.19
2022-11-04T15:01:39.399Z,94164.47
2022-11-04T15:04:28.815Z,94173.75
2022-11-04T15:07:01.200Z,94174.66
2022-11-04T15:09:35.378Z,94171.69
2022-11-04T15:12:29.593Z,94173.09
2022-11-04T15:14:58.021Z,94175.97
2022-11-04T15:17:29.568Z,94182.84
2022-11-04T15:20:00.536Z,94173.34
2022-11-04T15:22:30.752Z,94170.06
2022-11-04T15:25:02.937Z,94166.50
2022-11-04T15:27:30.793Z,94169.88
2022-11-04T15:30:00.931Z,94167.34
2022-11-04T15:32:28.207Z,94173.44
2022-11-04T15:34:56.734Z,94181.81
2022-11-04T15:37:25.905Z,94171.19
2022-11-04T15:39:56.749Z,94169.00
2022-11-04T15:42:37.554Z,94170.34
2022-11-04T15:45:38.240Z,94174.38
2022-11-04T15:48:28.419Z,94183.22
2022-11-04T15:51:20.044Z,94179.59
2022-11-04T15:54:00.940Z,94177.16
2022-11-04T15:56:32.590Z,94180.53
2022-11-04T15:59:01.028Z,94172.72
2022-11-04T16:01:29.582Z,94168.72
2022-11-04T16:03:59.580Z,94179.34
2022-11-04T16:06:37.579Z,94170.63
2022-11-04T16:09:27.412Z,94178.72
2022-11-04T16:12:17.937Z,94176.63
2022-11-04T16:14:50.128Z,94160.19
2022-11-04T16:17:17.258Z,94162.41
2022-11-04T16:20:06.300Z,94166.19
2022-11-04T16:22:37.584Z,94177.28
2022-11-04T16:25:07.364Z,94177.91
2022-11-04T16:27:36.273Z,94185.84
2022-11-04T16:30:23.706Z,94189.44
2022-11-04T16:32:54.142Z,94183.72
2022-11-04T16:35:27.064Z,94191.97
2022-11-04T16:37:56.421Z,94183.25
2022-11-04T16:40:24.724Z,94187.34
2022-11-04T16:42:53.288Z,94211.22
2022-11-04T16:45:34.867Z,94195.84
2022-11-04T16:48:02.589Z,94211.22
2022-11-04T16:50:32.231Z,94211.84
2022-11-04T16:52:59.536Z,94219.31
2022-11-04T16:55:27.196Z,94226.16
2022-11-04T16:58:03.183Z,94218.34
2022-11-04T17:00:33.318Z,94226.66
2022-11-04T17:03:21.219Z,94227.88
2022-11-04T17:05:54.005Z,94212.50
2022-11-04T17:08:21.072Z,94225.09
2022-11-04T17:10:48.866Z,94232.50
2022-11-04T17:13:15.874Z,94222.25
2022-11-04T17:15:43.191Z,94219.97
2022-11-04T17:18:14.690Z,94219.97
2022-11-04T17:20:42.927Z,94236.41
2022-11-04T17:23:13.165Z,94218.13
2022-11-04T17:25:40.327Z,94216.53
2022-11-04T17:28:07.397Z,94223.72
2022-11-04T17:30:34.396Z,94223.88
2022-11-04T17:33:01.743Z,94218.59
2022-11-04T17:35:28.861Z,94219.75
2022-11-04T17:37:55.865Z,94216.44
2022-11-04T17:40:23.901Z,94220.88
2022-11-04T17:43:12.309Z,94219.75
2022-11-04T17:45:42.248Z,94221.53
2022-11-04T17:48:10.399Z,94221.53
2022-11-04T17:50:39.823Z,94222.13
2022-11-04T17:53:07.877Z,94208.22
2022-11-04T17:55:40.181Z,94213.44
2022-11-04T17:58:07.361Z,94219.06
2022-11-04T18:00:34.721Z,94212.31
2022-11-04T18:03:01.753Z,94214.09
2022-11-04T18:05:28.833Z,94210.94
2022-11-04T18:07:58.545Z,94203.94
2022-11-04T18:10:25.754Z,94217.06
2022-11-04T18:12:52.976Z,94208.81
2022-11-04T18:15:20.113Z,94216.59
2022-11-04T18:17:47.287Z,94213.25
2022-11-04T18:20:15.737Z,94205.13
2022-11-04T18:22:43.595Z,94205.31
2022-11-04T18:25:11.522Z,94215.97
2022-11-04T18:27:38.619Z,94212.81
2022-11-04T18:30:06.699Z,94201.28
2022-11-04T18:32:33.987Z,94211.88
2022-11-04T18:35:01.279Z,94208.97
2022-11-04T18:37:29.202Z,94215.75
2022-11-04T18:39:56.306Z,94211.66
2022-11-04T18:42:23.482Z,94208.28
2022-11-04T18:44:50.627Z,94213.25
2022-11-04T18:47:18.021Z,94220.03
2022-11-04T18:49:45.027Z,94216.19
2022-11-04T18:52:12.032Z,94230.31
2022-11-04T18:54:39.386Z,94221.94
2022-11-04T18:57:06.483Z,94232.53
2022-11-04T18:59:33.578Z,94221.13
2022-11-04T19:02:00.767Z,94220.09
2022-11-04T19:04:27.968Z,94212.72
2022-11-04T19:06:55.077Z,94221.50
2022-11-04T19:12:28.501Z,94220.38
2022-11-04T19:14:55.618Z,94219.09
2022-11-04T19:17:22.797Z,94225.50
2022-11-04T19:19:50.092Z,94227.59
2022-11-04T19:22:16.995Z,94222.72
2022-11-04T19:24:44.083Z,94234.47
2022-11-04T19:27:11.229Z,94223.34
2022-11-04T19:29:38.500Z,94238.84
2022-11-04T19:32:11.095Z,94234.50
2022-11-04T19:34:41.380Z,94237.41
2022-11-04T19:37:08.847Z,94245.38
2022-11-04T19:39:35.834Z,94244.06
2022-11-04T19:42:22.198Z,94254.00
2022-11-04T19:44:49.379Z,94259.84
2022-11-04T19:47:16.392Z,94258.47
2022-11-04T19:49:43.413Z,94266.84
2022-11-04T19:52:10.510Z,94261.16
2022-11-04T19:54:37.573Z,94265.91
2022-11-04T19:57:05.057Z,94273.56
2022-11-04T19:59:32.163Z,94268.44
2022-11-04T20:01:59.826Z,94268.66
2022-11-04T20:04:27.043Z,94271.97
2022-11-04T20:06:54.208Z,94279.44
2022-11-04T20:09:22.613Z,94280.25
2022-11-04T20:12:11.201Z,94286.34
2022-11-04T20:14:38.277Z,94283.28
2022-11-04T20:17:06.896Z,94276.06
2022-11-04T20:19:35.085Z,94284.78
2022-11-04T20:22:02.267Z,94274.63
2022-11-04T20:24:29.384Z,94278.16
2022-11-04T20:26:56.840Z,94261.03
2022-11-04T20:29:23.863Z,94284.69
2022-11-04T20:31:51.140Z,94282.31
2022-11-04T20:34:18.125Z,94285.06
2022-11-04T20:36:45.018Z,94282.03
2022-11-04T20:39:17.306Z,94276.91
2022-11-04T20:41:45.119Z,94280.09
2022-11-04T20:44:13.676Z,94264.84
2022-11-04T20:46:40.845Z,94265.31
2022-11-04T20:49:08.323Z,94268.03
2022-11-04T20:51:38.502Z,94274.88
2022-11-04T20:54:07.899Z,94266.13
2022-11-04T20:56:37.045Z,94266.44
2022-11-04T20:59:05.451Z,94261.03
2022-11-04T21:01:35.841Z,94258.66
2022-11-04T21:04:06.251Z,94256.75
2022-11-04T21:06:36.180Z,94261.81
2022-11-04T21:09:04.319Z,94251.81
2022-11-04T21:11:32.496Z,94252.16
2022-11-04T21:13:59.742Z,94242.59
2022-11-04T21:16:26.912Z,94252.09
2022-11-04T21:18:54.905Z,94252.38
2022-11-04T21:21:23.205Z,94255.53
2022-11-04T21:23:51.479Z,94249.97
2022-11-04T21:26:27.148Z,94244.06
2022-11-04T21:29:01.132Z,94239.91
2022-11-04T21:31:29.808Z,94226.88
2022-11-04T21:33:57.117Z,94235.44
2022-11-04T21:36:24.335Z,94226.22
2022-11-04T21:38:51.522Z,94217.94
2022-11-04T21:41:25.473Z,94222.09
2022-11-04T21:44:00.873Z,94218.59
2022-11-04T21:46:30.558Z,94217.16
2022-11-04T21:48:57.906Z,94213.78
2022-11-04T21:51:27.075Z,94210.78
2022-11-04T21:53:54.232Z,94214.59
2022-11-04T21:56:24.296Z,94211.97
2022-11-04T21:58:52.499Z,94202.47
2022-11-04T22:01:24.214Z,94212.81
2022-11-04T22:03:56.868Z,94203.25
2022-11-04T22:06:26.616Z,94208.41
2022-11-04T22:08:56.503Z,94206.38
2022-11-04T22:11:27.076Z,94195.00
2022-11-04T22:13:59.773Z,94204.56
2022-11-04T22:16:29.832Z,94205.34
2022-11-04T22:19:01.815Z,94190.53
2022-11-04T22:21:30.206Z,94190.06
2022-11-04T22:23:58.681Z,94182.91
2022-11-04T22:26:31.218Z,94188.78
2022-11-04T22:28:59.225Z,94178.09
2022-11-04T22:31:28.885Z,94184.06
2022-11-04T22:33:57.016Z,94191.91
2022-11-04T22:36:24.310Z,94173.88
2022-11-04T22:38:51.448Z,94170.06
2022-11-04T22:41:22.699Z,94164.72
2022-11-04T22:43:49.634Z,94183.63
2022-11-04T22:46:22.557Z,94170.06
2022-11-04T22:48:49.576Z,94168.28
2022-11-04T22:51:17.235Z,94183.28
2022-11-04T22:53:45.059Z,94184.16
2022-11-04T22:56:14.696Z,94183.34
2022-11-04T22:58:41.808Z,94182.41
2022-11-04T23:01:12.383Z,94187.81
2022-11-04T23:03:40.312Z,94187.03
2022-11-04T23:06:08.803Z,94187.31
2022-11-04T23:08:37.200Z,94187.44
2022-11-04T23:11:26.972Z,94182.38
2022-11-04T23:14:20.089Z,94184.00
2022-11-04T23:17:08.136Z,94184.00
2022-11-04T23:19:37.101Z,94187.03
2022-11-04T23:22:24.632Z,94181.44
2022-11-04T23:25:06.074Z,94187.56
2022-11-04T23:27:52.842Z,94210.03
2022-11-04T23:30:22.964Z,94201.72
2022-11-04T23:33:01.829Z,94203.13
2022-11-04T23:35:58.989Z,94211.22
2022-11-04T23:38:26.799Z,94217.06
2022-11-04T23:41:18.054Z,94223.69
2022-11-04T23:43:45.213Z,94223.69
2022-11-04T23:46:31.557Z,94211.31
2022-11-04T23:49:33.856Z,94220.91
2022-11-04T23:52:19.013Z,94208.63
2022-11-04T23:55:04.327Z,94208.84
2022-11-04T23:57:49.520Z,94231.03
